Time;durP1;ratioP1;P1;durP2;ratioP2;P2;SDS_P1;SDS_P2;PMS_P1;PMS_P2;Temp;Humidity;BMP_temperature;BMP_pressure;BME280_temperature;BME280_humidity;BME280_pressure;Samples;Min_cycle;Max_cycle;Signal;HPM_P1;HPM_P2
2022/07/21 00:00:21;;;;;;;7.45;4.00;;;21.10;1.00;;;;;;5027445;28;20196;-63
2022/07/21 00:02:49;;;;;;;8.77;3.78;;;21.80;1.00;;;;;;5000003;28;20685;-64
2022/07/21 00:05:15;;;;;;;7.50;3.97;;;21.00;1.00;;;;;;5011466;28;20194;-63
2022/07/21 00:07:43;;;;;;;8.48;3.92;;;20.90;1.00;;;;;;5026518;28;20197;-63
2022/07/21 00:10:12;;;;;;;5.97;3.38;;;20.90;1.00;;;;;;5027049;28;20391;-63
2022/07/21 00:12:39;;;;;;;6.90;3.90;;;20.80;1.00;;;;;;5016626;28;20615;-62
2022/07/21 00:15:07;;;;;;;10.18;3.83;;;20.80;1.00;;;;;;5027369;28;21225;-64
2022/07/21 00:17:34;;;;;;;6.97;4.03;;;;;;;;;;5026692;28;20198;-63
2022/07/21 00:20:01;;;;;;;6.93;4.00;;;20.80;1.00;;;;;;4993920;28;20227;-63
2022/07/21 00:22:28;;;;;;;7.90;3.85;;;20.70;1.00;;;;;;5030179;28;20667;-63
2022/07/21 00:24:55;;;;;;;11.30;4.07;;;20.70;1.00;;;;;;5023750;28;20399;-63
2022/07/21 00:27:23;;;;;;;8.63;3.53;;;20.60;1.00;;;;;;5010213;28;20210;-64
2022/07/21 00:29:50;;;;;;;5.10;3.70;;;20.70;1.00;;;;;;5023071;28;20220;-63
2022/07/21 00:32:17;;;;;;;11.13;4.07;;;20.60;1.00;;;;;;5026381;28;20236;-63
2022/07/21 00:34:44;;;;;;;13.85;4.25;;;;;;;;;;4990003;28;20244;-63
2022/07/21 00:37:12;;;;;;;13.80;4.00;;;;;;;;;;5024377;28;20209;-62
2022/07/21 00:39:39;;;;;;;9.40;3.42;;;;;;;;;;5012218;28;20694;-63
2022/07/21 00:42:06;;;;;;;7.90;3.80;;;20.70;1.00;;;;;;5021478;28;20526;-63
2022/07/21 00:44:34;;;;;;;8.98;3.88;;;20.80;1.00;;;;;;5014484;28;20205;-63
2022/07/21 00:47:01;;;;;;;10.35;4.03;;;20.90;1.00;;;;;;5026694;28;20650;-63
2022/07/21 00:49:28;;;;;;;7.18;4.07;;;20.90;1.00;;;;;;4999610;28;20205;-63
2022/07/21 00:51:55;;;;;;;10.38;3.90;;;20.80;1.00;;;;;;5006968;28;20206;-62
2022/07/21 00:54:21;;;;;;;7.47;4.15;;;20.90;1.00;;;;;;5027380;28;20217;-64
2022/07/21 00:56:48;;;;;;;8.95;4.15;;;21.50;1.00;;;;;;5022250;28;20643;-62
2022/07/21 00:59:16;;;;;;;8.65;4.85;;;21.20;1.00;;;;;;5013951;28;20201;-63
2022/07/21 01:01:45;;;;;;;17.95;5.20;;;21.20;1.00;;;;;;5021217;28;20615;-63
2022/07/21 01:04:11;;;;;;;7.38;5.00;;;21.20;1.00;;;;;;5001075;28;20208;-64
2022/07/21 01:06:38;;;;;;;11.35;5.40;;;21.20;1.00;;;;;;5009991;28;20760;-64
2022/07/21 01:09:05;;;;;;;8.57;4.68;;;21.20;1.00;;;;;;5021390;28;21250;-63
2022/07/21 01:11:33;;;;;;;10.07;5.15;;;21.20;1.00;;;;;;5021814;28;20201;-63
2022/07/21 01:14:00;;;;;;;12.85;5.18;;;21.20;1.00;;;;;;5006088;28;20595;-63
2022/07/21 01:16:27;;;;;;;6.63;4.72;;;21.30;1.00;;;;;;5019348;28;20212;-63
2022/07/21 01:18:55;;;;;;;9.13;5.20;;;21.20;1.00;;;;;;4991305;28;21307;-63
2022/07/21 01:21:32;;;;;;;9.88;5.38;;;21.20;1.00;;;;;;5010175;28;20198;-63
2022/07/21 01:23:59;;;;;;;7.00;4.78;;;21.20;1.00;;;;;;5021178;28;20397;-63
2022/07/21 01:26:26;;;;;;;8.30;4.50;;;21.20;1.00;;;;;;5022637;28;20194;-63
2022/07/21 01:28:54;;;;;;;9.18;4.28;;;21.20;1.00;;;;;;5020592;28;20501;-62
2022/07/21 01:31:21;;;;;;;10.00;3.85;;;21.20;1.00;;;;;;5010878;28;20225;-63
2022/07/21 01:33:48;;;;;;;8.40;3.97;;;21.30;1.00;;;;;;4992999;28;20878;-63
2022/07/21 01:36:15;;;;;;;6.70;4.85;;;21.20;1.00;;;;;;5022857;28;20651;-63
2022/07/21 01:41:31;;;;;;;9.45;4.10;;;21.30;1.00;;;;;;5014752;28;20228;-63
2022/07/21 01:43:59;;;;;;;5.63;3.80;;;;;;;;;;5020341;28;20201;-63
2022/07/21 01:46:27;;;;;;;8.35;4.10;;;;;;;;;;5009277;28;20202;-63
2022/07/21 01:48:54;;;;;;;7.45;4.60;;;21.30;99.90;;;;;;4991616;28;20701;-63
2022/07/21 01:51:21;;;;;;;6.00;3.50;;;21.30;99.90;;;;;;5017187;28;20469;-64
2022/07/21 01:53:49;;;;;;;11.27;4.40;;;21.30;99.90;;;;;;5005041;28;20304;-63
2022/07/21 01:56:19;;;;;;;7.90;3.60;;;21.20;99.90;;;;;;5022059;28;20229;-63
2022/07/21 01:58:46;;;;;;;5.10;3.22;;;21.20;99.90;;;;;;5017371;28;20197;-62
2022/07/21 02:01:12;;;;;;;6.72;3.95;;;21.00;99.90;;;;;;5009219;28;20209;-63
2022/07/21 02:03:39;;;;;;;7.53;3.92;;;20.60;99.90;;;;;;5010593;28;20526;-63
2022/07/21 02:06:08;;;;;;;4.47;3.17;;;20.70;1.00;;;;;;4998020;28;20213;-63
2022/07/21 02:08:35;;;;;;;5.85;3.10;;;20.60;99.90;;;;;;5009430;28;21414;-63
2022/07/21 02:11:04;;;;;;;5.00;2.90;;;20.50;1.00;;;;;;5027816;28;20211;-63
2022/07/21 02:13:31;;;;;;;6.60;3.17;;;20.50;1.00;;;;;;5026687;28;20197;-63
2022/07/21 02:16:02;;;;;;;8.10;3.10;;;18.90;1.00;;;;;;5017051;28;20775;-63
2022/07/21 02:18:28;;;;;;;8.00;3.30;;;22.70;1.00;;;;;;5029574;28;20209;-63
2022/07/21 02:20:56;;;;;;;9.02;3.28;;;19.10;1.00;;;;;;4997648;28;20211;-63
2022/07/21 02:23:23;;;;;;;3.05;2.75;;;20.40;1.00;;;;;;5015009;28;20676;-63
2022/07/21 02:25:51;;;;;;;5.65;3.08;;;20.40;1.00;;;;;;5012305;28;20835;-63
2022/07/21 02:28:20;;;;;;;3.65;2.80;;;20.40;1.00;;;;;;5025909;28;20657;-63
2022/07/21 02:30:48;;;;;;;5.90;3.25;;;20.40;1.00;;;;;;5012427;28;20704;-64
2022/07/21 02:33:15;;;;;;;7.07;2.95;;;20.40;1.00;;;;;;5016773;28;20233;-63
2022/07/21 02:35:43;;;;;;;5.70;2.65;;;;;;;;;;5026401;28;20397;-63
2022/07/21 02:38:10;;;;;;;4.63;2.80;;;20.50;1.00;;;;;;5003115;28;20213;-64
2022/07/21 02:40:37;;;;;;;4.70;2.70;;;20.60;1.00;;;;;;4997311;28;20491;-62
2022/07/21 02:43:05;;;;;;;5.60;3.00;;;20.50;1.00;;;;;;5025881;28;20197;-64
2022/07/21 02:45:33;;;;;;;3.35;3.05;;;20.60;1.00;;;;;;5025145;28;20197;-62
2022/07/21 02:48:03;;;;;;;5.07;3.13;;;20.50;1.00;;;;;;5006154;28;20542;-64
2022/07/21 02:50:32;;;;;;;8.05;3.58;;;19.40;1.00;;;;;;5030025;28;20206;-64
2022/07/21 02:53:01;;;;;;;4.60;3.33;;;20.50;1.00;;;;;;5007670;28;20250;-63
2022/07/21 02:55:28;;;;;;;6.60;3.20;;;20.50;1.00;;;;;;5018870;28;20231;-63
2022/07/21 02:58:09;;;;;;;3.90;2.67;;;20.50;1.00;;;;;;5027061;28;20301;-63
2022/07/21 03:00:39;;;;;;;4.50;3.88;;;20.50;1.00;;;;;;5029545;28;20197;-63
2022/07/21 03:03:06;;;;;;;7.05;3.40;;;20.50;1.00;;;;;;5020310;28;20699;-64
2022/07/21 03:05:33;;;;;;;5.93;3.05;;;20.50;1.00;;;;;;5016417;28;20198;-63
2022/07/21 03:08:00;;;;;;;7.30;3.58;;;20.50;1.00;;;;;;5007866;28;20740;-64
2022/07/21 03:10:27;;;;;;;5.05;3.33;;;20.50;1.00;;;;;;5012105;28;20557;-63
2022/07/21 03:12:53;;;;;;;7.80;3.45;;;20.50;1.00;;;;;;5028663;28;20205;-63
2022/07/21 03:15:20;;;;;;;5.65;3.47;;;20.60;1.00;;;;;;5029096;28;20229;-63
2022/07/21 03:17:49;;;;;;;4.68;3.58;;;20.50;1.00;;;;;;5016564;28;20208;-64
2022/07/21 03:20:16;;;;;;;5.20;3.58;;;20.80;1.00;;;;;;5017043;28;20202;-64
2022/07/21 03:22:42;;;;;;;6.30;3.22;;;20.60;1.00;;;;;;5004997;28;20216;-62
2022/07/21 03:25:09;;;;;;;5.28;3.33;;;20.60;1.00;;;;;;5029909;28;20650;-65
2022/07/21 03:27:36;;;;;;;7.68;2.92;;;20.50;1.00;;;;;;5011617;28;20225;-64
2022/07/21 03:30:06;;;;;;;5.18;3.33;;;20.50;1.00;;;;;;5026701;28;20889;-63
2022/07/21 03:32:32;;;;;;;5.13;3.58;;;20.40;1.00;;;;;;5018694;28;20234;-61
2022/07/21 03:35:01;;;;;;;7.80;3.80;;;20.40;1.00;;;;;;4995196;28;20206;-63
2022/07/21 03:37:28;;;;;;;6.18;4.25;;;20.20;1.00;;;;;;4997291;28;21159;-64
2022/07/21 03:39:56;;;;;;;8.45;3.75;;;20.30;1.00;;;;;;5016033;28;20612;-63
2022/07/21 03:42:22;;;;;;;6.18;4.00;;;20.30;1.00;;;;;;4997277;28;20860;-63
2022/07/21 03:44:49;;;;;;;6.32;4.50;;;20.30;1.00;;;;;;5028639;28;20672;-64
2022/07/21 03:47:16;;;;;;;8.68;5.40;;;20.20;1.00;;;;;;5018063;28;20200;-63
2022/07/21 03:49:43;;;;;;;7.75;4.18;;;20.20;1.00;;;;;;5030696;28;20791;-62
2022/07/21 03:52:11;;;;;;;8.00;4.20;;;20.20;1.00;;;;;;5015776;28;20197;-61
2022/07/21 03:54:38;;;;;;;7.30;4.07;;;20.10;1.00;;;;;;4999640;28;20341;-61
2022/07/21 03:57:05;;;;;;;4.35;3.95;;;20.10;1.00;;;;;;5004942;28;20884;-63
2022/07/21 03:59:32;;;;;;;7.60;4.35;;;20.10;7.80;;;;;;5020398;28;20251;-64
2022/07/21 04:01:58;;;;;;;6.22;4.88;;;20.10;13.80;;;;;;5005971;28;20221;-63
2022/07/21 04:04:25;;;;;;;7.53;4.63;;;20.10;20.50;;;;;;5014118;28;20200;-63
2022/07/21 04:06:52;;;;;;;9.30;4.60;;;20.10;26.20;;;;;;5003914;28;20201;-63
2022/07/21 04:09:20;;;;;;;6.38;4.47;;;20.20;36.00;;;;;;4995444;28;20214;-63
2022/07/21 04:11:47;;;;;;;7.35;4.30;;;20.10;38.10;;;;;;5019402;28;20228;-63
2022/07/21 04:14:14;;;;;;;7.18;4.28;;;20.10;36.30;;;;;;5002859;28;20489;-63
2022/07/21 04:16:41;;;;;;;5.75;3.75;;;20.30;37.20;;;;;;5021300;28;20225;-63
2022/07/21 04:19:07;;;;;;;5.60;4.05;;;20.50;46.90;;;;;;5014088;28;20203;-62
2022/07/21 04:21:34;;;;;;;14.77;5.18;;;20.20;52.50;;;;;;5009611;28;20893;-63
2022/07/21 04:24:01;;;;;;;7.20;4.85;;;20.10;52.80;;;;;;4999662;28;20208;-62
2022/07/21 04:26:29;;;;;;;7.35;4.57;;;20.20;57.40;;;;;;5020037;28;20606;-64
2022/07/21 04:28:56;;;;;;;9.75;4.65;;;20.20;54.50;;;;;;4993129;28;20348;-63
2022/07/21 04:31:23;;;;;;;8.57;4.65;;;20.30;54.90;;;;;;5010055;28;21624;-63
2022/07/21 04:33:50;;;;;;;9.13;4.50;;;20.20;60.20;;;;;;5020387;28;20205;-63
2022/07/21 04:36:17;;;;;;;8.45;4.53;;;20.40;60.30;;;;;;5026861;28;20226;-64
2022/07/21 04:38:43;;;;;;;7.03;4.70;;;23.30;53.80;;;;;;4995419;28;20205;-62
2022/07/21 04:41:10;;;;;;;6.07;4.55;;;20.30;48.40;;;;;;5010428;28;20333;-63
2022/07/21 04:43:38;;;;;;;9.35;4.47;;;20.40;50.30;;;;;;5007825;28;20300;-64
2022/07/21 04:46:05;;;;;;;7.43;4.20;;;20.00;54.30;;;;;;5005862;28;20236;-63
2022/07/21 04:48:32;;;;;;;6.70;5.18;;;20.30;55.30;;;;;;5017688;28;20232;-63
2022/07/21 04:50:59;;;;;;;11.07;5.15;;;20.30;58.00;;;;;;5022281;28;20197;-64
2022/07/21 04:53:25;;;;;;;6.53;4.70;;;20.40;62.70;;;;;;4990791;28;20541;-64
2022/07/21 04:55:52;;;;;;;6.40;4.97;;;20.40;65.10;;;;;;4998669;28;20232;-64
2022/07/21 04:58:19;;;;;;;6.72;4.45;;;21.10;64.60;;;;;;5017699;28;20197;-63
2022/07/21 05:00:47;;;;;;;7.10;4.75;;;20.60;66.40;;;;;;5012951;28;20213;-64
2022/07/21 05:03:14;;;;;;;8.38;5.47;;;20.40;64.80;;;;;;4998703;28;20524;-63
2022/07/21 05:05:41;;;;;;;8.60;5.20;;;20.50;67.10;;;;;;5023060;28;20933;-63
2022/07/21 05:08:08;;;;;;;8.75;5.07;;;20.50;66.30;;;;;;4990996;28;20208;-64
2022/07/21 05:10:35;;;;;;;8.25;5.13;;;20.60;66.70;;;;;;4997131;28;20205;-64
2022/07/21 05:13:01;;;;;;;8.85;5.38;;;20.70;67.80;;;;;;5011928;28;20539;-63
2022/07/21 05:15:28;;;;;;;9.75;5.10;;;20.60;63.10;;;;;;5013176;28;20201;-64
2022/07/21 05:17:56;;;;;;;9.32;5.10;;;20.50;62.00;;;;;;4991940;28;20705;-63
2022/07/21 05:20:23;;;;;;;5.00;4.25;;;20.70;63.60;;;;;;5022859;28;20197;-63
2022/07/21 05:22:50;;;;;;;7.60;5.00;;;20.70;60.30;;;;;;4998923;28;20221;-64
2022/07/21 05:25:17;;;;;;;6.05;4.80;;;20.60;62.10;;;;;;5004512;28;20205;-64
2022/07/21 05:27:44;;;;;;;6.38;5.43;;;20.70;70.10;;;;;;5006916;28;20210;-64
2022/07/21 05:30:11;;;;;;;7.88;5.43;;;20.60;71.70;;;;;;5021677;28;20202;-63
2022/07/21 05:32:38;;;;;;;8.77;5.00;;;20.40;78.70;;;;;;4990871;28;20217;-63
2022/07/21 05:35:11;;;;;;;7.72;5.72;;;20.50;75.50;;;;;;5010264;28;20217;-64
2022/07/21 05:37:38;;;;;;;8.85;5.80;;;20.40;79.20;;;;;;5008771;28;20359;-63
2022/07/21 05:43:28;;;;;;;8.32;5.97;;;19.90;86.30;;;;;;5077864;27;21013;-62
2022/07/21 05:45:55;;;;;;;6.60;5.60;;;20.50;90.00;;;;;;5095104;27;20199;-63
2022/07/21 05:48:21;;;;;;;10.95;5.68;;;20.70;92.10;;;;;;5065630;27;20364;-63
2022/07/21 05:50:48;;;;;;;8.40;4.90;;;20.60;91.10;;;;;;5103273;27;20206;-63
2022/07/21 05:53:15;;;;;;;7.70;6.03;;;20.70;89.50;;;;;;5089336;27;20202;-64
2022/07/21 05:55:42;;;;;;;10.63;6.38;;;20.70;82.50;;;;;;5080299;27;20215;-64
2022/07/21 05:58:08;;;;;;;10.27;6.35;;;20.60;80.30;;;;;;5098198;27;20195;-64
2022/07/21 06:00:37;;;;;;;9.45;6.57;;;20.50;85.90;;;;;;5103410;27;20203;-65
2022/07/21 06:03:03;;;;;;;12.65;6.65;;;20.50;89.10;;;;;;5086769;27;20596;-64
2022/07/21 06:05:30;;;;;;;13.07;7.53;;;20.70;90.50;;;;;;5093171;27;20897;-63
2022/07/21 06:07:57;;;;;;;12.07;7.68;;;20.70;88.60;;;;;;5101707;27;20195;-65
2022/07/21 06:10:24;;;;;;;10.05;6.50;;;20.70;83.30;;;;;;5063568;27;20207;-65
2022/07/21 06:12:50;;;;;;;9.60;6.50;;;21.10;78.30;;;;;;5103461;27;20183;-64
2022/07/21 06:15:17;;;;;;;11.50;7.30;;;20.90;68.60;;;;;;5102797;27;20210;-64
2022/07/21 06:17:46;;;;;;;13.52;7.15;;;20.70;72.20;;;;;;5083080;27;20194;-64
2022/07/21 06:20:14;;;;;;;8.52;6.68;;;20.70;71.20;;;;;;5086645;27;20207;-65
2022/07/21 06:22:41;;;;;;;9.23;7.10;;;20.90;67.20;;;;;;5098890;27;20614;-64
2022/07/21 06:25:09;;;;;;;10.02;7.90;;;21.10;66.50;;;;;;5085467;27;20226;-62
2022/07/21 06:27:36;;;;;;;9.40;6.93;;;22.20;61.10;;;;;;5074856;27;20211;-64
2022/07/21 06:30:03;;;;;;;9.85;7.38;;;21.20;59.10;;;;;;5096120;27;20207;-64
2022/07/21 06:32:30;;;;;;;14.00;7.80;;;21.10;59.80;;;;;;5074833;27;20702;-62
2022/07/21 06:34:58;;;;;;;11.38;6.97;;;20.90;64.20;;;;;;5091480;27;20199;-62
2022/07/21 06:37:25;;;;;;;9.27;7.32;;;21.10;63.40;;;;;;5100944;27;20601;-62
2022/07/21 06:39:51;;;;;;;11.02;8.05;;;21.10;65.10;;;;;;5103680;27;20315;-62
2022/07/21 06:42:18;;;;;;;10.38;7.72;;;21.20;55.00;;;;;;5057272;27;20353;-63
2022/07/21 06:44:45;;;;;;;12.60;8.73;;;21.20;52.90;;;;;;5100570;27;20207;-62
2022/07/21 06:47:12;;;;;;;11.25;9.30;;;;;;;;;;5091910;27;20230;-62
2022/07/21 06:49:39;;;;;;;10.68;9.57;;;21.40;53.60;;;;;;5100406;27;20199;-62
2022/07/21 06:52:07;;;;;;;13.15;9.25;;;20.90;61.10;;;;;;5082179;27;20317;-62
2022/07/21 06:54:34;;;;;;;9.98;9.00;;;;;;;;;;5082922;28;20978;-62
2022/07/21 06:57:01;;;;;;;16.38;10.45;;;22.10;77.30;;;;;;5055425;27;20219;-62
2022/07/21 06:59:28;;;;;;;11.57;9.30;;;20.90;72.60;;;;;;5061139;27;21153;-62
2022/07/21 07:01:55;;;;;;;14.35;10.25;;;21.00;77.40;;;;;;5083142;28;20373;-62
2022/07/21 07:04:22;;;;;;;13.15;10.50;;;21.00;78.60;;;;;;5067340;27;20214;-62
2022/07/21 07:06:51;;;;;;;13.18;9.90;;;21.00;79.60;;;;;;5075079;27;20215;-64
2022/07/21 07:09:20;;;;;;;13.98;10.50;;;21.10;80.50;;;;;;5084122;27;20192;-64
2022/07/21 07:11:47;;;;;;;15.23;10.82;;;21.10;77.10;;;;;;5088065;27;20703;-64
2022/07/21 07:14:14;;;;;;;17.73;10.88;;;;;;;;;;5049471;27;20364;-64
2022/07/21 07:16:41;;;;;;;16.17;11.27;;;21.30;75.90;;;;;;5086416;27;20215;-64
2022/07/21 07:19:08;;;;;;;14.85;11.00;;;21.20;73.50;;;;;;5066709;27;20204;-64
2022/07/21 07:21:35;;;;;;;13.70;11.15;;;20.40;73.00;;;;;;5072583;27;20566;-63
2022/07/21 07:24:02;;;;;;;13.93;10.80;;;21.30;70.00;;;;;;5075315;28;20262;-64
2022/07/21 07:26:30;;;;;;;14.48;11.18;;;22.10;70.60;;;;;;5083109;27;20360;-62
2022/07/21 07:28:57;;;;;;;15.52;11.15;;;20.40;68.40;;;;;;5026296;28;20199;-63
2022/07/21 07:31:24;;;;;;;11.65;10.45;;;21.20;69.10;;;;;;5085683;27;20218;-64
2022/07/21 07:33:50;;;;;;;14.10;11.10;;;21.10;71.80;;;;;;5073631;27;20779;-64
2022/07/21 07:36:17;;;;;;;13.82;11.23;;;20.90;82.80;;;;;;5069616;27;20203;-64
2022/07/21 07:38:45;;;;;;;11.55;9.68;;;21.00;83.00;;;;;;5060584;28;20413;-64
2022/07/21 07:41:11;;;;;;;9.90;8.48;;;21.00;86.30;;;;;;5067515;27;20215;-64
2022/07/21 07:43:39;;;;;;;11.02;8.98;;;20.80;91.80;;;;;;5048219;27;20227;-64
2022/07/21 07:46:07;;;;;;;11.35;9.95;;;23.20;94.90;;;;;;5050155;27;20817;-64
2022/07/21 07:48:36;;;;;;;11.73;9.15;;;21.00;93.10;;;;;;5068736;27;20187;-65
2022/07/21 07:51:03;;;;;;;11.00;8.35;;;21.00;95.20;;;;;;5070982;27;20210;-65
2022/07/21 07:53:30;;;;;;;11.95;7.82;;;;;;;;;;5051474;27;21184;-66
2022/07/21 07:55:57;;;;;;;9.05;7.45;;;21.00;97.90;;;;;;5060955;28;20216;-65
2022/07/21 07:58:24;;;;;;;10.50;8.30;;;20.90;98.20;;;;;;5035113;27;20219;-63
2022/07/21 08:00:52;;;;;;;11.35;7.90;;;21.00;98.90;;;;;;5042800;27;20230;-65
2022/07/21 08:03:19;;;;;;;10.63;8.82;;;21.00;99.50;;;;;;5075300;27;20502;-65
2022/07/21 08:05:46;;;;;;;10.95;7.68;;;21.00;99.60;;;;;;5067320;28;20456;-65
2022/07/21 08:08:13;;;;;;;9.02;7.47;;;21.10;99.90;;;;;;5048172;27;20582;-65
2022/07/21 08:10:40;;;;;;;9.13;7.68;;;21.10;99.90;;;;;;5073073;27;20214;-65
2022/07/21 08:13:08;;;;;;;10.52;7.97;;;21.10;99.90;;;;;;5054949;27;20250;-65
2022/07/21 08:15:35;;;;;;;8.15;6.45;;;21.10;99.90;;;;;;5025228;27;20447;-66
2022/07/21 08:18:03;;;;;;;6.35;5.75;;;21.20;99.90;;;;;;5061117;28;20195;-65
2022/07/21 08:20:30;;;;;;;7.10;5.63;;;21.20;99.90;;;;;;5050259;28;20394;-65
2022/07/21 08:22:57;;;;;;;6.07;5.30;;;21.10;99.90;;;;;;5058072;28;20238;-65
2022/07/21 08:25:24;;;;;;;4.70;4.30;;;21.10;99.90;;;;;;5074552;27;20207;-65
2022/07/21 08:27:50;;;;;;;6.32;4.10;;;21.10;99.90;;;;;;5065661;27;20203;-65
2022/07/21 08:30:17;;;;;;;5.15;4.43;;;21.30;99.90;;;;;;5043578;27;20806;-66
2022/07/21 08:32:44;;;;;;;5.93;5.25;;;21.10;99.90;;;;;;5056208;27;20689;-65
2022/07/21 08:35:13;;;;;;;5.93;5.25;;;22.40;99.90;;;;;;5065293;27;20546;-67
2022/07/21 08:37:40;;;;;;;7.45;6.63;;;21.30;99.90;;;;;;5059013;27;20239;-66
2022/07/21 08:40:09;;;;;;;9.88;7.65;;;21.40;99.90;;;;;;5049912;28;20220;-65
2022/07/21 08:42:37;;;;;;;7.85;7.05;;;21.40;99.90;;;;;;5079955;27;20236;-65
2022/07/21 08:45:05;;;;;;;9.70;8.35;;;21.30;99.90;;;;;;5049360;28;20933;-65
2022/07/21 08:47:32;;;;;;;9.35;7.55;;;21.40;99.90;;;;;;5036916;28;20229;-64
2022/07/21 08:50:01;;;;;;;9.60;7.93;;;21.50;99.90;;;;;;5067610;27;20204;-66
2022/07/21 08:52:29;;;;;;;9.38;8.30;;;21.50;99.90;;;;;;5057637;28;20963;-65
2022/07/21 08:54:57;;;;;;;9.13;8.05;;;21.40;99.90;;;;;;5063923;28;20207;-67
2022/07/21 08:57:24;;;;;;;9.68;8.75;;;21.50;99.90;;;;;;5075573;27;20601;-66
2022/07/21 08:59:51;;;;;;;9.93;8.93;;;21.50;99.90;;;;;;5057825;27;20227;-65
2022/07/21 09:02:29;;;;;;;9.23;8.43;;;21.90;99.90;;;;;;5048657;28;20234;-65
2022/07/21 09:04:56;;;;;;;9.85;8.60;;;20.00;99.90;;;;;;5060011;28;20231;-65
2022/07/21 09:07:23;;;;;;;8.85;7.95;;;;;;;;;;5073380;28;20233;-66
2022/07/21 09:09:58;;;;;;;8.43;7.57;;;22.00;99.90;;;;;;5058034;27;20230;-66
2022/07/21 09:12:25;;;;;;;9.77;8.02;;;21.30;99.90;;;;;;5080628;28;20205;-66
2022/07/21 09:14:52;;;;;;;10.30;7.43;;;;;;;;;;5060849;27;20226;-66
2022/07/21 09:17:20;;;;;;;7.40;6.70;;;20.70;99.90;;;;;;5061332;28;20227;-65
2022/07/21 09:19:49;;;;;;;7.40;6.80;;;21.20;99.90;;;;;;5052098;28;20622;-64
2022/07/21 09:22:18;;;;;;;8.48;7.63;;;21.20;99.90;;;;;;5046931;28;20219;-65
2022/07/21 09:24:50;;;;;;;9.57;7.55;;;21.00;99.90;;;;;;5039581;28;20251;-65
2022/07/21 09:27:21;;;;;;;8.18;7.45;;;21.20;99.90;;;;;;5073463;28;20227;-65
2022/07/21 09:29:50;;;;;;;10.05;8.00;;;21.20;99.90;;;;;;5049930;28;20214;-65
2022/07/21 09:32:22;;;;;;;8.55;7.75;;;21.30;99.90;;;;;;5071499;27;20421;-65
2022/07/21 09:34:51;;;;;;;9.52;8.63;;;21.20;99.90;;;;;;5046468;28;20250;-65
2022/07/21 09:37:20;;;;;;;10.40;8.43;;;21.40;99.90;;;;;;5062396;28;21006;-64
2022/07/21 09:39:49;;;;;;;9.18;8.35;;;21.50;99.90;;;;;;5052417;28;20605;-63
2022/07/21 09:42:21;;;;;;;10.63;9.52;;;21.40;99.90;;;;;;5050550;28;21243;-64
2022/07/21 09:44:49;;;;;;;9.75;8.88;;;21.50;99.90;;;;;;5074508;28;20857;-65
2022/07/21 09:47:18;;;;;;;11.60;10.50;;;21.60;99.90;;;;;;5070676;28;20204;-65
2022/07/21 09:49:45;;;;;;;9.85;8.90;;;22.00;99.90;;;;;;5052599;28;20231;-65
2022/07/21 09:52:26;;;;;;;10.02;9.13;;;21.90;99.90;;;;;;5057006;28;21097;-64
2022/07/21 09:54:57;;;;;;;10.38;9.32;;;21.90;99.90;;;;;;5069703;28;20247;-65
2022/07/21 09:57:27;;;;;;;10.93;9.82;;;21.90;99.90;;;;;;5062117;28;20717;-64
2022/07/21 09:59:54;;;;;;;11.48;10.38;;;22.10;99.90;;;;;;5080003;28;20210;-65
2022/07/21 10:02:23;;;;;;;10.93;9.80;;;21.50;99.90;;;;;;5062148;28;20230;-64
2022/07/21 10:04:57;;;;;;;12.40;11.20;;;22.00;99.90;;;;;;5061283;28;20200;-65
2022/07/21 10:07:25;;;;;;;11.40;10.30;;;22.00;99.90;;;;;;5084315;28;20196;-65
2022/07/21 10:09:52;;;;;;;9.98;9.07;;;22.00;99.90;;;;;;5077646;28;20199;-66
2022/07/21 10:12:19;;;;;;;9.68;8.73;;;22.10;99.90;;;;;;5074433;28;20250;-64
2022/07/21 10:14:48;;;;;;;9.95;9.00;;;21.90;97.70;;;;;;5090044;28;20203;-65
2022/07/21 10:17:15;;;;;;;9.55;8.55;;;22.00;97.40;;;;;;5085516;28;20195;-66
2022/07/21 10:19:54;;;;;;;8.52;7.65;;;22.30;99.30;;;;;;5072416;28;20206;-66
2022/07/21 10:22:30;;;;;;;7.85;7.15;;;22.10;97.80;;;;;;5084543;28;20203;-66
2022/07/21 10:24:57;;;;;;;9.23;8.32;;;22.00;92.40;;;;;;5077516;28;20664;-66
2022/07/21 10:27:24;;;;;;;9.10;8.30;;;22.00;92.00;;;;;;5072718;28;21481;-64
2022/07/21 10:30:00;;;;;;;9.23;8.40;;;21.90;91.40;;;;;;5088593;27;20202;-65
2022/07/21 10:32:30;;;;;;;10.30;8.85;;;22.10;91.70;;;;;;5093094;27;20199;-65
2022/07/21 10:34:59;;;;;;;8.98;8.07;;;23.30;92.40;;;;;;5062157;27;20200;-65
2022/07/21 10:37:47;;;;;;;9.80;8.90;;;22.10;91.40;;;;;;5090816;27;20199;-64
2022/07/21 10:40:41;;;;;;;9.52;8.63;;;22.20;91.40;;;;;;5093009;27;20199;-65
2022/07/21 10:43:36;;;;;;;9.73;8.73;;;22.00;90.10;;;;;;5028149;27;20223;-65
2022/07/21 10:46:24;;;;;;;12.50;8.88;;;22.20;89.70;;;;;;5088007;28;20271;-64
2022/07/21 10:48:51;;;;;;;10.00;9.10;;;22.30;90.70;;;;;;5063880;28;20226;-64
2022/07/21 10:51:19;;;;;;;11.27;9.90;;;22.60;91.00;;;;;;5054530;27;20714;-64
2022/07/21 10:53:47;;;;;;;10.25;9.25;;;22.30;89.00;;;;;;5087991;27;20228;-65
2022/07/21 10:56:27;;;;;;;11.57;9.32;;;22.30;88.50;;;;;;5084331;28;20202;-65
2022/07/21 10:58:54;;;;;;;9.88;8.98;;;22.50;86.30;;;;;;5067247;27;20219;-65
2022/07/21 11:01:24;;;;;;;9.80;8.80;;;22.70;85.80;;;;;;5087896;28;20200;-65
2022/07/21 11:04:07;;;;;;;9.15;8.25;;;22.60;79.50;;;;;;5085010;27;20235;-65
2022/07/21 11:06:35;;;;;;;10.68;9.35;;;22.40;72.20;;;;;;5061935;27;20719;-65
2022/07/21 11:09:13;;;;;;;9.10;8.20;;;22.60;71.70;;;;;;5086445;27;20227;-65
2022/07/21 11:11:58;;;;;;;9.70;8.80;;;22.70;67.80;;;;;;5082078;28;20984;-65
2022/07/21 11:14:39;;;;;;;9.48;8.55;;;22.70;68.30;;;;;;5061327;27;20280;-64
2022/07/21 11:17:08;;;;;;;8.50;7.70;;;22.80;66.80;;;;;;5088109;27;20272;-64
2022/07/21 11:19:41;;;;;;;8.27;7.47;;;22.80;65.00;;;;;;5086924;27;20211;-64
2022/07/21 11:22:12;;;;;;;8.88;8.00;;;22.90;66.70;;;;;;5073593;27;20669;-64
2022/07/21 11:24:39;;;;;;;9.25;8.02;;;22.80;62.30;;;;;;5068983;27;20279;-64
2022/07/21 11:27:08;;;;;;;8.90;8.00;;;22.80;57.30;;;;;;5089794;28;20676;-64
2022/07/21 11:29:37;;;;;;;8.73;7.93;;;23.00;55.00;;;;;;5062843;27;21471;-65
2022/07/21 11:32:04;;;;;;;8.25;7.05;;;22.80;49.00;;;;;;5084217;27;20199;-64
2022/07/21 11:34:40;;;;;;;8.40;7.60;;;23.00;45.30;;;;;;5082421;27;20220;-64
2022/07/21 11:37:08;;;;;;;8.07;7.32;;;23.10;47.70;;;;;;5071920;28;20593;-64
2022/07/21 11:39:36;;;;;;;8.70;7.50;;;23.00;47.30;;;;;;5073608;27;20211;-64
2022/07/21 11:42:04;;;;;;;7.88;7.13;;;22.80;32.90;;;;;;5092407;27;20223;-65
2022/07/21 11:44:31;;;;;;;8.50;7.65;;;23.00;30.60;;;;;;5058041;27;20738;-64
2022/07/21 11:46:59;;;;;;;10.27;7.47;;;23.00;28.20;;;;;;5091668;28;20199;-64
2022/07/21 11:49:26;;;;;;;8.80;7.45;;;22.90;27.10;;;;;;5071774;27;20228;-65
2022/07/21 11:51:57;;;;;;;8.00;7.20;;;23.00;25.60;;;;;;5066759;27;20207;-65
2022/07/21 11:54:27;;;;;;;7.00;6.30;;;23.50;25.30;;;;;;5064525;27;20210;-65
2022/07/21 11:56:55;;;;;;;6.63;6.03;;;22.70;1.00;;;;;;5083822;27;20214;-65
2022/07/21 11:59:22;;;;;;;8.27;5.63;;;22.90;1.00;;;;;;5078092;28;20223;-65
2022/07/21 12:01:55;;;;;;;5.80;5.20;;;23.10;1.00;;;;;;5050263;27;20230;-64
2022/07/21 12:04:34;;;;;;;9.10;5.53;;;23.00;1.00;;;;;;5074724;27;20227;-64
2022/07/21 12:07:04;;;;;;;6.40;5.78;;;23.00;1.00;;;;;;5078643;28;21172;-65
2022/07/21 12:09:32;;;;;;;7.85;6.93;;;23.00;1.00;;;;;;5072507;27;20203;-65
2022/07/21 12:11:59;;;;;;;8.57;7.25;;;23.10;1.10;;;;;;5076211;27;20219;-64
2022/07/21 12:14:47;;;;;;;8.48;7.20;;;23.10;3.30;;;;;;5083469;27;20231;-65
2022/07/21 12:17:15;;;;;;;6.95;6.35;;;23.00;1.00;;;;;;5071290;27;20215;-65
2022/07/21 12:19:43;;;;;;;8.15;7.30;;;23.20;5.80;;;;;;5079449;28;20203;-65
2022/07/21 12:22:12;;;;;;;8.05;7.22;;;23.00;5.00;;;;;;5079714;28;20211;-66
2022/07/21 12:24:57;;;;;;;8.73;7.30;;;23.00;4.50;;;;;;5081083;28;20223;-65
2022/07/21 12:27:24;;;;;;;7.72;6.72;;;23.20;8.80;;;;;;5093275;27;20854;-65
2022/07/21 12:29:51;;;;;;;8.35;6.90;;;23.10;8.50;;;;;;5088766;27;20199;-65
2022/07/21 12:32:44;;;;;;;9.93;8.57;;;23.10;11.80;;;;;;5071876;27;20199;-64
2022/07/21 12:35:22;;;;;;;7.78;7.00;;;23.20;10.40;;;;;;5078309;28;20695;-65
2022/07/21 12:37:59;;;;;;;10.27;7.15;;;23.20;11.00;;;;;;5075558;27;20245;-64
2022/07/21 12:40:26;;;;;;;10.35;7.60;;;23.30;9.30;;;;;;5069690;27;20235;-64
2022/07/21 12:43:09;;;;;;;7.90;7.10;;;23.30;1.00;;;;;;5088695;27;20224;-64
2022/07/21 12:46:00;;;;;;;10.65;7.55;;;23.40;6.70;;;;;;5089739;27;20702;-65
2022/07/21 12:48:29;;;;;;;9.40;7.20;;;23.40;2.50;;;;;;5059766;27;20215;-65
2022/07/21 12:51:05;;;;;;;8.80;7.38;;;23.40;1.00;;;;;;5076164;28;20191;-64
2022/07/21 12:53:35;;;;;;;7.60;6.82;;;23.40;1.00;;;;;;5091133;27;20195;-64
2022/07/21 12:56:03;;;;;;;9.65;7.78;;;23.30;1.00;;;;;;5056569;27;20204;-65
2022/07/21 12:58:30;;;;;;;8.80;7.90;;;23.40;1.00;;;;;;5087693;27;21181;-65
2022/07/21 13:00:56;;;;;;;7.95;7.00;;;23.40;1.00;;;;;;5085763;27;20206;-64
2022/07/21 13:03:23;;;;;;;8.73;7.65;;;23.40;1.00;;;;;;5065403;28;20204;-65